sensor_id;sensor_type;location;lat;lon;timestamp;P1;durP1;ratioP1;P2;durP2;ratioP2
3050;SDS011;1535;51.098;6.414;2023-08-06T00:00:54;10.60;;;10.40;;
3050;SDS011;1535;51.098;6.414;2023-08-06T00:03:20;11.23;;;10.93;;
3050;SDS011;1535;51.098;6.414;2023-08-06T00:05:48;11.53;;;11.23;;
3050;SDS011;1535;51.098;6.414;2023-08-06T00:08:15;11.17;;;10.87;;
3050;SDS011;1535;51.098;6.414;2023-08-06T00:10:42;11.50;;;11.20;;
3050;SDS011;1535;51.098;6.414;2023-08-06T00:13:09;10.50;;;10.30;;
3050;SDS011;1535;51.098;6.414;2023-08-06T00:15:38;10.80;;;10.60;;
3050;SDS011;1535;51.098;6.414;2023-08-06T00:18:05;10.77;;;10.57;;
3050;SDS011;1535;51.098;6.414;2023-08-06T00:20:34;10.40;;;10.20;;
3050;SDS011;1535;51.098;6.414;2023-08-06T00:23:01;10.43;;;10.23;;
3050;SDS011;1535;51.098;6.414;2023-08-06T00:25:28;10.10;;;9.90;;
3050;SDS011;1535;51.098;6.414;2023-08-06T00:27:55;11.20;;;10.90;;
3050;SDS011;1535;51.098;6.414;2023-08-06T00:30:23;10.70;;;10.50;;
3050;SDS011;1535;51.098;6.414;2023-08-06T00:32:51;10.47;;;10.27;;
3050;SDS011;1535;51.098;6.414;2023-08-06T00:35:19;10.10;;;9.90;;
3050;SDS011;1535;51.098;6.414;2023-08-06T00:37:46;9.90;;;9.70;;
3050;SDS011;1535;51.098;6.414;2023-08-06T00:40:13;10.00;;;9.80;;
3050;SDS011;1535;51.098;6.414;2023-08-06T00:42:41;9.80;;;9.60;;
3050;SDS011;1535;51.098;6.414;2023-08-06T00:45:10;9.10;;;8.90;;
3050;SDS011;1535;51.098;6.414;2023-08-06T00:47:37;8.70;;;8.60;;
3050;SDS011;1535;51.098;6.414;2023-08-06T00:50:07;8.70;;;8.60;;
3050;SDS011;1535;51.098;6.414;2023-08-06T00:52:35;9.33;;;9.13;;
3050;SDS011;1535;51.098;6.414;2023-08-06T00:55:03;8.80;;;8.70;;
3050;SDS011;1535;51.098;6.414;2023-08-06T00:57:30;9.10;;;8.90;;
3050;SDS011;1535;51.098;6.414;2023-08-06T00:59:57;8.50;;;8.40;;
3050;SDS011;1535;51.098;6.414;2023-08-06T01:02:24;8.60;;;8.50;;
3050;SDS011;1535;51.098;6.414;2023-08-06T01:04:52;8.30;;;8.20;;
3050;SDS011;1535;51.098;6.414;2023-08-06T01:07:25;8.23;;;8.13;;
3050;SDS011;1535;51.098;6.414;2023-08-06T01:10:08;8.00;;;7.90;;
3050;SDS011;1535;51.098;6.414;2023-08-06T01:12:48;8.20;;;8.10;;
3050;SDS011;1535;51.098;6.414;2023-08-06T01:15:21;7.70;;;7.60;;
3050;SDS011;1535;51.098;6.414;2023-08-06T01:17:51;7.90;;;7.80;;
3050;SDS011;1535;51.098;6.414;2023-08-06T01:20:18;7.30;;;7.20;;
3050;SDS011;1535;51.098;6.414;2023-08-06T01:22:46;7.53;;;7.43;;
3050;SDS011;1535;51.098;6.414;2023-08-06T01:25:14;7.70;;;7.60;;
3050;SDS011;1535;51.098;6.414;2023-08-06T01:27:43;7.10;;;7.00;;
3050;SDS011;1535;51.098;6.414;2023-08-06T01:30:15;7.30;;;7.20;;
3050;SDS011;1535;51.098;6.414;2023-08-06T01:32:44;7.27;;;7.17;;
3050;SDS011;1535;51.098;6.414;2023-08-06T01:35:13;7.17;;;7.07;;
3050;SDS011;1535;51.098;6.414;2023-08-06T01:37:42;6.60;;;6.50;;
3050;SDS011;1535;51.098;6.414;2023-08-06T01:40:12;6.40;;;6.30;;
3050;SDS011;1535;51.098;6.414;2023-08-06T01:42:39;6.47;;;6.37;;
3050;SDS011;1535;51.098;6.414;2023-08-06T01:45:07;6.10;;;6.00;;
3050;SDS011;1535;51.098;6.414;2023-08-06T01:47:34;5.90;;;5.80;;
3050;SDS011;1535;51.098;6.414;2023-08-06T01:50:02;6.10;;;6.00;;
3050;SDS011;1535;51.098;6.414;2023-08-06T01:52:29;6.40;;;6.30;;
3050;SDS011;1535;51.098;6.414;2023-08-06T01:54:56;6.10;;;6.00;;
3050;SDS011;1535;51.098;6.414;2023-08-06T01:57:24;5.80;;;5.70;;
3050;SDS011;1535;51.098;6.414;2023-08-06T01:59:52;5.97;;;5.87;;
3050;SDS011;1535;51.098;6.414;2023-08-06T02:02:19;6.20;;;6.10;;
3050;SDS011;1535;51.098;6.414;2023-08-06T02:04:45;6.10;;;6.00;;
3050;SDS011;1535;51.098;6.414;2023-08-06T02:07:13;5.80;;;5.70;;
3050;SDS011;1535;51.098;6.414;2023-08-06T02:09:40;5.50;;;5.40;;
3050;SDS011;1535;51.098;6.414;2023-08-06T02:12:07;5.50;;;5.40;;
3050;SDS011;1535;51.098;6.414;2023-08-06T02:14:36;5.63;;;5.53;;
3050;SDS011;1535;51.098;6.414;2023-08-06T02:17:02;5.90;;;5.80;;
3050;SDS011;1535;51.098;6.414;2023-08-06T02:19:30;6.03;;;5.93;;
3050;SDS011;1535;51.098;6.414;2023-08-06T02:21:57;5.70;;;5.60;;
3050;SDS011;1535;51.098;6.414;2023-08-06T02:24:24;6.27;;;6.17;;
3050;SDS011;1535;51.098;6.414;2023-08-06T02:26:51;5.93;;;5.83;;
3050;SDS011;1535;51.098;6.414;2023-08-06T02:29:20;5.50;;;5.40;;
3050;SDS011;1535;51.098;6.414;2023-08-06T02:31:49;5.70;;;5.60;;
3050;SDS011;1535;51.098;6.414;2023-08-06T02:34:16;5.73;;;5.63;;
3050;SDS011;1535;51.098;6.414;2023-08-06T02:36:44;5.43;;;5.33;;
3050;SDS011;1535;51.098;6.414;2023-08-06T02:39:12;5.17;;;5.10;;
3050;SDS011;1535;51.098;6.414;2023-08-06T02:41:39;4.93;;;4.93;;
3050;SDS011;1535;51.098;6.414;2023-08-06T02:44:06;4.60;;;4.60;;
3050;SDS011;1535;51.098;6.414;2023-08-06T02:46:33;4.30;;;4.30;;
3050;SDS011;1535;51.098;6.414;2023-08-06T02:49:01;4.07;;;4.07;;
3050;SDS011;1535;51.098;6.414;2023-08-06T02:51:28;4.50;;;4.50;;
3050;SDS011;1535;51.098;6.414;2023-08-06T02:53:54;4.07;;;4.07;;
3050;SDS011;1535;51.098;6.414;2023-08-06T02:56:22;4.17;;;4.17;;
3050;SDS011;1535;51.098;6.414;2023-08-06T02:58:49;3.90;;;3.90;;
3050;SDS011;1535;51.098;6.414;2023-08-06T03:01:16;3.30;;;3.30;;
3050;SDS011;1535;51.098;6.414;2023-08-06T03:03:43;3.27;;;3.27;;
3050;SDS011;1535;51.098;6.414;2023-08-06T03:06:11;3.40;;;3.40;;
3050;SDS011;1535;51.098;6.414;2023-08-06T03:08:37;3.50;;;3.50;;
3050;SDS011;1535;51.098;6.414;2023-08-06T03:11:04;4.03;;;4.03;;
3050;SDS011;1535;51.098;6.414;2023-08-06T03:13:31;2.97;;;2.97;;
3050;SDS011;1535;51.098;6.414;2023-08-06T03:15:59;3.40;;;3.40;;
3050;SDS011;1535;51.098;6.414;2023-08-06T03:18:26;3.00;;;3.00;;
3050;SDS011;1535;51.098;6.414;2023-08-06T03:20:53;3.00;;;3.00;;
3050;SDS011;1535;51.098;6.414;2023-08-06T03:23:22;3.60;;;3.60;;
3050;SDS011;1535;51.098;6.414;2023-08-06T03:25:48;3.30;;;3.30;;
3050;SDS011;1535;51.098;6.414;2023-08-06T03:28:15;3.37;;;3.37;;
3050;SDS011;1535;51.098;6.414;2023-08-06T03:30:42;3.50;;;3.50;;
3050;SDS011;1535;51.098;6.414;2023-08-06T03:33:10;3.50;;;3.50;;
3050;SDS011;1535;51.098;6.414;2023-08-06T03:35:37;3.90;;;3.90;;
3050;SDS011;1535;51.098;6.414;2023-08-06T03:38:03;4.13;;;4.13;;
3050;SDS011;1535;51.098;6.414;2023-08-06T03:40:34;5.60;;;5.50;;
3050;SDS011;1535;51.098;6.414;2023-08-06T03:43:02;7.50;;;7.40;;
3050;SDS011;1535;51.098;6.414;2023-08-06T03:45:29;7.90;;;7.80;;
3050;SDS011;1535;51.098;6.414;2023-08-06T03:47:56;9.10;;;8.93;;
3050;SDS011;1535;51.098;6.414;2023-08-06T03:50:24;10.20;;;10.00;;
3050;SDS011;1535;51.098;6.414;2023-08-06T03:52:50;10.30;;;10.10;;
3050;SDS011;1535;51.098;6.414;2023-08-06T03:55:17;10.23;;;10.03;;
3050;SDS011;1535;51.098;6.414;2023-08-06T03:57:46;10.40;;;10.20;;
3050;SDS011;1535;51.098;6.414;2023-08-06T04:00:12;10.20;;;10.00;;
3050;SDS011;1535;51.098;6.414;2023-08-06T04:02:39;9.90;;;9.70;;
3050;SDS011;1535;51.098;6.414;2023-08-06T04:05:06;10.80;;;10.50;;
3050;SDS011;1535;51.098;6.414;2023-08-06T04:07:34;11.10;;;10.80;;
3050;SDS011;1535;51.098;6.414;2023-08-06T04:10:03;10.30;;;10.10;;
3050;SDS011;1535;51.098;6.414;2023-08-06T04:12:30;10.37;;;10.13;;
3050;SDS011;1535;51.098;6.414;2023-08-06T04:15:02;10.10;;;9.90;;
3050;SDS011;1535;51.098;6.414;2023-08-06T04:17:30;10.20;;;9.90;;
3050;SDS011;1535;51.098;6.414;2023-08-06T04:19:56;10.17;;;9.87;;
3050;SDS011;1535;51.098;6.414;2023-08-06T04:22:24;10.10;;;9.80;;
3050;SDS011;1535;51.098;6.414;2023-08-06T04:24:51;10.53;;;10.23;;
3050;SDS011;1535;51.098;6.414;2023-08-06T04:27:19;10.93;;;10.63;;
3050;SDS011;1535;51.098;6.414;2023-08-06T04:29:46;11.77;;;11.40;;
3050;SDS011;1535;51.098;6.414;2023-08-06T04:32:14;11.30;;;11.00;;
3050;SDS011;1535;51.098;6.414;2023-08-06T04:34:42;10.80;;;10.50;;
3050;SDS011;1535;51.098;6.414;2023-08-06T04:37:10;11.30;;;10.93;;
3050;SDS011;1535;51.098;6.414;2023-08-06T04:39:37;12.03;;;11.63;;
3050;SDS011;1535;51.098;6.414;2023-08-06T04:42:05;11.80;;;11.40;;
3050;SDS011;1535;51.098;6.414;2023-08-06T04:44:32;11.10;;;10.70;;
3050;SDS011;1535;51.098;6.414;2023-08-06T04:47:00;10.43;;;10.13;;
3050;SDS011;1535;51.098;6.414;2023-08-06T04:49:28;10.60;;;10.30;;
3050;SDS011;1535;51.098;6.414;2023-08-06T04:51:54;10.70;;;10.30;;
3050;SDS011;1535;51.098;6.414;2023-08-06T04:54:21;10.90;;;10.50;;
3050;SDS011;1535;51.098;6.414;2023-08-06T04:56:48;10.40;;;10.00;;
3050;SDS011;1535;51.098;6.414;2023-08-06T04:59:15;10.53;;;10.13;;
3050;SDS011;1535;51.098;6.414;2023-08-06T05:01:41;10.60;;;10.20;;
3050;SDS011;1535;51.098;6.414;2023-08-06T05:04:08;11.10;;;10.70;;
3050;SDS011;1535;51.098;6.414;2023-08-06T05:06:36;10.03;;;9.63;;
3050;SDS011;1535;51.098;6.414;2023-08-06T05:09:05;10.43;;;10.03;;
3050;SDS011;1535;51.098;6.414;2023-08-06T05:11:32;10.00;;;9.60;;
3050;SDS011;1535;51.098;6.414;2023-08-06T05:13:59;10.50;;;10.10;;
3050;SDS011;1535;51.098;6.414;2023-08-06T05:16:26;10.87;;;10.47;;
3050;SDS011;1535;51.098;6.414;2023-08-06T05:18:54;10.47;;;10.07;;
3050;SDS011;1535;51.098;6.414;2023-08-06T05:21:20;10.90;;;10.50;;
3050;SDS011;1535;51.098;6.414;2023-08-06T05:23:49;10.43;;;10.03;;
3050;SDS011;1535;51.098;6.414;2023-08-06T05:26:16;10.87;;;10.47;;
3050;SDS011;1535;51.098;6.414;2023-08-06T05:28:44;10.83;;;10.43;;
3050;SDS011;1535;51.098;6.414;2023-08-06T05:31:12;11.00;;;10.60;;
3050;SDS011;1535;51.098;6.414;2023-08-06T05:33:39;11.30;;;10.90;;
3050;SDS011;1535;51.098;6.414;2023-08-06T05:36:07;11.50;;;11.10;;
3050;SDS011;1535;51.098;6.414;2023-08-06T05:38:34;11.30;;;10.90;;
3050;SDS011;1535;51.098;6.414;2023-08-06T05:41:03;11.60;;;11.20;;
3050;SDS011;1535;51.098;6.414;2023-08-06T05:43:32;11.03;;;10.63;;
3050;SDS011;1535;51.098;6.414;2023-08-06T05:45:59;11.13;;;10.73;;
3050;SDS011;1535;51.098;6.414;2023-08-06T05:48:25;10.90;;;10.50;;
3050;SDS011;1535;51.098;6.414;2023-08-06T05:50:53;10.90;;;10.50;;
3050;SDS011;1535;51.098;6.414;2023-08-06T05:53:20;11.50;;;11.10;;
3050;SDS011;1535;51.098;6.414;2023-08-06T05:55:48;11.20;;;10.80;;
3050;SDS011;1535;51.098;6.414;2023-08-06T05:58:17;10.63;;;10.23;;
3050;SDS011;1535;51.098;6.414;2023-08-06T06:00:45;10.50;;;10.10;;
3050;SDS011;1535;51.098;6.414;2023-08-06T06:03:12;10.50;;;10.10;;
3050;SDS011;1535;51.098;6.414;2023-08-06T06:05:39;10.63;;;10.23;;
3050;SDS011;1535;51.098;6.414;2023-08-06T06:08:06;10.90;;;10.50;;
3050;SDS011;1535;51.098;6.414;2023-08-06T06:10:32;10.50;;;10.10;;
3050;SDS011;1535;51.098;6.414;2023-08-06T06:12:59;10.10;;;9.70;;
3050;SDS011;1535;51.098;6.414;2023-08-06T06:15:28;10.03;;;9.63;;
3050;SDS011;1535;51.098;6.414;2023-08-06T06:17:56;10.43;;;10.03;;
3050;SDS011;1535;51.098;6.414;2023-08-06T06:20:23;11.07;;;10.57;;
3050;SDS011;1535;51.098;6.414;2023-08-06T06:22:49;10.80;;;10.40;;
3050;SDS011;1535;51.098;6.414;2023-08-06T06:25:16;10.80;;;10.40;;
3050;SDS011;1535;51.098;6.414;2023-08-06T06:27:43;10.80;;;10.40;;
3050;SDS011;1535;51.098;6.414;2023-08-06T06:30:10;10.70;;;10.30;;
3050;SDS011;1535;51.098;6.414;2023-08-06T06:32:39;10.90;;;10.50;;
3050;SDS011;1535;51.098;6.414;2023-08-06T06:35:06;11.03;;;10.63;;
3050;SDS011;1535;51.098;6.414;2023-08-06T06:37:34;11.10;;;10.70;;
3050;SDS011;1535;51.098;6.414;2023-08-06T06:40:02;11.20;;;10.80;;
3050;SDS011;1535;51.098;6.414;2023-08-06T06:42:30;11.50;;;11.10;;
3050;SDS011;1535;51.098;6.414;2023-08-06T06:44:57;11.70;;;11.20;;
3050;SDS011;1535;51.098;6.414;2023-08-06T06:47:24;10.87;;;10.47;;
3050;SDS011;1535;51.098;6.414;2023-08-06T06:49:52;11.20;;;10.80;;
3050;SDS011;1535;51.098;6.414;2023-08-06T06:52:19;11.40;;;11.00;;
3050;SDS011;1535;51.098;6.414;2023-08-06T06:54:46;11.40;;;11.00;;
3050;SDS011;1535;51.098;6.414;2023-08-06T06:57:14;11.90;;;11.40;;
3050;SDS011;1535;51.098;6.414;2023-08-06T06:59:40;12.13;;;11.63;;
3050;SDS011;1535;51.098;6.414;2023-08-06T07:02:07;11.67;;;11.27;;
3050;SDS011;1535;51.098;6.414;2023-08-06T07:04:34;11.40;;;11.00;;
3050;SDS011;1535;51.098;6.414;2023-08-06T07:07:03;10.80;;;10.40;;
3050;SDS011;1535;51.098;6.414;2023-08-06T07:09:30;10.17;;;9.80;;
3050;SDS011;1535;51.098;6.414;2023-08-06T07:11:57;9.30;;;9.00;;
3050;SDS011;1535;51.098;6.414;2023-08-06T07:14:25;9.10;;;8.80;;
3050;SDS011;1535;51.098;6.414;2023-08-06T07:16:52;8.63;;;8.33;;
3050;SDS011;1535;51.098;6.414;2023-08-06T07:19:19;9.73;;;9.43;;
3050;SDS011;1535;51.098;6.414;2023-08-06T07:21:45;8.90;;;8.60;;
3050;SDS011;1535;51.098;6.414;2023-08-06T07:24:14;8.93;;;8.63;;
3050;SDS011;1535;51.098;6.414;2023-08-06T07:26:42;9.70;;;9.40;;
3050;SDS011;1535;51.098;6.414;2023-08-06T07:29:08;9.80;;;9.50;;
3050;SDS011;1535;51.098;6.414;2023-08-06T07:31:35;9.50;;;9.20;;
3050;SDS011;1535;51.098;6.414;2023-08-06T07:34:02;9.83;;;9.50;;
3050;SDS011;1535;51.098;6.414;2023-08-06T07:36:29;10.20;;;9.80;;
3050;SDS011;1535;51.098;6.414;2023-08-06T07:38:57;10.30;;;9.90;;
3050;SDS011;1535;51.098;6.414;2023-08-06T07:41:25;9.80;;;9.50;;
3050;SDS011;1535;51.098;6.414;2023-08-06T07:43:52;10.30;;;9.90;;
3050;SDS011;1535;51.098;6.414;2023-08-06T07:46:19;10.70;;;10.30;;
3050;SDS011;1535;51.098;6.414;2023-08-06T07:48:47;10.40;;;10.00;;
3050;SDS011;1535;51.098;6.414;2023-08-06T07:51:14;10.33;;;9.93;;
3050;SDS011;1535;51.098;6.414;2023-08-06T07:53:40;10.60;;;10.20;;
3050;SDS011;1535;51.098;6.414;2023-08-06T07:56:08;10.00;;;9.60;;
3050;SDS011;1535;51.098;6.414;2023-08-06T07:58:37;10.70;;;10.30;;
3050;SDS011;1535;51.098;6.414;2023-08-06T08:01:05;10.57;;;10.17;;
3050;SDS011;1535;51.098;6.414;2023-08-06T08:03:32;11.20;;;10.80;;
3050;SDS011;1535;51.098;6.414;2023-08-06T08:05:59;13.50;;;12.90;;
3050;SDS011;1535;51.098;6.414;2023-08-06T08:08:26;13.00;;;12.40;;
3050;SDS011;1535;51.098;6.414;2023-08-06T08:10:53;12.50;;;12.00;;
3050;SDS011;1535;51.098;6.414;2023-08-06T08:13:21;11.13;;;10.73;;
3050;SDS011;1535;51.098;6.414;2023-08-06T08:15:49;10.80;;;10.40;;
3050;SDS011;1535;51.098;6.414;2023-08-06T08:18:16;10.10;;;9.70;;
3050;SDS011;1535;51.098;6.414;2023-08-06T08:20:44;10.00;;;9.60;;
3050;SDS011;1535;51.098;6.414;2023-08-06T08:23:10;9.60;;;9.30;;
3050;SDS011;1535;51.098;6.414;2023-08-06T08:25:37;9.50;;;9.10;;
3050;SDS011;1535;51.098;6.414;2023-08-06T08:28:04;8.73;;;8.43;;
3050;SDS011;1535;51.098;6.414;2023-08-06T08:30:32;7.93;;;7.67;;
3050;SDS011;1535;51.098;6.414;2023-08-06T08:33:00;8.10;;;7.80;;
3050;SDS011;1535;51.098;6.414;2023-08-06T08:35:27;7.63;;;7.33;;
3050;SDS011;1535;51.098;6.414;2023-08-06T08:37:55;7.90;;;7.60;;
3050;SDS011;1535;51.098;6.414;2023-08-06T08:40:21;6.70;;;6.50;;
3050;SDS011;1535;51.098;6.414;2023-08-06T08:42:53;6.17;;;5.97;;
3050;SDS011;1535;51.098;6.414;2023-08-06T08:45:22;7.00;;;6.70;;
3050;SDS011;1535;51.098;6.414;2023-08-06T08:47:52;6.50;;;6.30;;
3050;SDS011;1535;51.098;6.414;2023-08-06T08:50:20;6.20;;;6.00;;
3050;SDS011;1535;51.098;6.414;2023-08-06T08:52:47;5.30;;;5.20;;
3050;SDS011;1535;51.098;6.414;2023-08-06T08:55:17;7.77;;;7.57;;
3050;SDS011;1535;51.098;6.414;2023-08-06T08:57:47;7.30;;;7.10;;
3050;SDS011;1535;51.098;6.414;2023-08-06T09:00:14;8.10;;;7.80;;
3050;SDS011;1535;51.098;6.414;2023-08-06T09:02:41;8.07;;;7.77;;
3050;SDS011;1535;51.098;6.414;2023-08-06T09:05:10;7.70;;;7.50;;
3050;SDS011;1535;51.098;6.414;2023-08-06T09:07:41;8.47;;;7.80;;
3050;SDS011;1535;51.098;6.414;2023-08-06T09:10:10;7.17;;;6.90;;
3050;SDS011;1535;51.098;6.414;2023-08-06T09:12:40;6.67;;;6.47;;
3050;SDS011;1535;51.098;6.414;2023-08-06T09:15:09;6.10;;;5.90;;
3050;SDS011;1535;51.098;6.414;2023-08-06T09:17:36;5.50;;;5.30;;
3050;SDS011;1535;51.098;6.414;2023-08-06T09:20:10;6.40;;;6.20;;
3050;SDS011;1535;51.098;6.414;2023-08-06T09:22:40;5.80;;;5.60;;
3050;SDS011;1535;51.098;6.414;2023-08-06T09:25:09;5.63;;;5.43;;
3050;SDS011;1535;51.098;6.414;2023-08-06T09:27:36;6.00;;;5.63;;
3050;SDS011;1535;51.098;6.414;2023-08-06T09:30:07;6.10;;;5.80;;
3050;SDS011;1535;51.098;6.414;2023-08-06T09:32:46;5.53;;;5.33;;
3050;SDS011;1535;51.098;6.414;2023-08-06T09:35:16;6.07;;;5.87;;
3050;SDS011;1535;51.098;6.414;2023-08-06T09:37:47;5.27;;;5.07;;
3050;SDS011;1535;51.098;6.414;2023-08-06T09:40:25;5.27;;;5.07;;
3050;SDS011;1535;51.098;6.414;2023-08-06T09:42:53;5.03;;;4.93;;
3050;SDS011;1535;51.098;6.414;2023-08-06T09:45:20;5.10;;;4.90;;
3050;SDS011;1535;51.098;6.414;2023-08-06T09:47:48;5.03;;;4.83;;
3050;SDS011;1535;51.098;6.414;2023-08-06T09:50:15;6.23;;;5.97;;
3050;SDS011;1535;51.098;6.414;2023-08-06T09:52:47;5.10;;;4.80;;
3050;SDS011;1535;51.098;6.414;2023-08-06T09:55:14;5.80;;;5.50;;
3050;SDS011;1535;51.098;6.414;2023-08-06T09:57:42;4.73;;;4.53;;
3050;SDS011;1535;51.098;6.414;2023-08-06T10:00:11;4.33;;;4.23;;
3050;SDS011;1535;51.098;6.414;2023-08-06T10:02:42;4.57;;;4.37;;
3050;SDS011;1535;51.098;6.414;2023-08-06T10:05:12;3.93;;;3.83;;
3050;SDS011;1535;51.098;6.414;2023-08-06T10:07:39;4.43;;;4.33;;
3050;SDS011;1535;51.098;6.414;2023-08-06T10:10:11;4.07;;;3.90;;
3050;SDS011;1535;51.098;6.414;2023-08-06T10:12:39;4.73;;;4.53;;
3050;SDS011;1535;51.098;6.414;2023-08-06T10:15:11;5.03;;;4.83;;
3050;SDS011;1535;51.098;6.414;2023-08-06T10:17:41;4.50;;;4.30;;
3050;SDS011;1535;51.098;6.414;2023-08-06T10:20:12;4.70;;;4.50;;
3050;SDS011;1535;51.098;6.414;2023-08-06T10:22:46;4.57;;;4.40;;
3050;SDS011;1535;51.098;6.414;2023-08-06T10:25:28;5.90;;;5.50;;
3050;SDS011;1535;51.098;6.414;2023-08-06T10:28:00;6.40;;;4.60;;
3050;SDS011;1535;51.098;6.414;2023-08-06T10:30:42;4.63;;;4.43;;
3050;SDS011;1535;51.098;6.414;2023-08-06T10:33:10;5.37;;;5.07;;
3050;SDS011;1535;51.098;6.414;2023-08-06T10:35:40;5.13;;;4.93;;
3050;SDS011;1535;51.098;6.414;2023-08-06T10:38:11;4.83;;;4.67;;
3050;SDS011;1535;51.098;6.414;2023-08-06T10:40:41;5.10;;;4.90;;
3050;SDS011;1535;51.098;6.414;2023-08-06T10:43:24;4.63;;;4.53;;
3050;SDS011;1535;51.098;6.414;2023-08-06T10:45:52;5.97;;;5.60;;
3050;SDS011;1535;51.098;6.414;2023-08-06T10:48:28;6.27;;;5.77;;
3050;SDS011;1535;51.098;6.414;2023-08-06T10:51:02;5.20;;;5.00;;
3050;SDS011;1535;51.098;6.414;2023-08-06T10:53:33;3.90;;;3.80;;
3050;SDS011;1535;51.098;6.414;2023-08-06T10:56:02;4.70;;;4.50;;
3050;SDS011;1535;51.098;6.414;2023-08-06T10:58:42;5.57;;;5.00;;
3050;SDS011;1535;51.098;6.414;2023-08-06T11:01:10;4.33;;;4.20;;
3050;SDS011;1535;51.098;6.414;2023-08-06T11:03:37;4.97;;;4.57;;
3050;SDS011;1535;51.098;6.414;2023-08-06T11:06:07;5.00;;;4.80;;
3050;SDS011;1535;51.098;6.414;2023-08-06T11:08:47;4.57;;;4.47;;
3050;SDS011;1535;51.098;6.414;2023-08-06T11:11:18;5.50;;;5.30;;
3050;SDS011;1535;51.098;6.414;2023-08-06T11:13:49;5.73;;;5.53;;
3050;SDS011;1535;51.098;6.414;2023-08-06T11:16:21;6.47;;;6.07;;
3050;SDS011;1535;51.098;6.414;2023-08-06T11:18:50;6.53;;;6.00;;
3050;SDS011;1535;51.098;6.414;2023-08-06T11:21:19;6.77;;;6.47;;
3050;SDS011;1535;51.098;6.414;2023-08-06T11:23:47;5.80;;;5.50;;
3050;SDS011;1535;51.098;6.414;2023-08-06T11:26:19;7.30;;;7.00;;
3050;SDS011;1535;51.098;6.414;2023-08-06T11:28:48;6.70;;;6.40;;
3050;SDS011;1535;51.098;6.414;2023-08-06T11:31:18;7.27;;;6.87;;
3050;SDS011;1535;51.098;6.414;2023-08-06T11:33:45;7.10;;;6.63;;
3050;SDS011;1535;51.098;6.414;2023-08-06T11:36:12;5.90;;;5.70;;
3050;SDS011;1535;51.098;6.414;2023-08-06T11:38:39;7.57;;;6.97;;
3050;SDS011;1535;51.098;6.414;2023-08-06T11:41:07;6.53;;;6.33;;
3050;SDS011;1535;51.098;6.414;2023-08-06T11:43:36;5.57;;;5.37;;
3050;SDS011;1535;51.098;6.414;2023-08-06T11:46:02;5.27;;;5.07;;
3050;SDS011;1535;51.098;6.414;2023-08-06T11:48:29;5.50;;;5.10;;
3050;SDS011;1535;51.098;6.414;2023-08-06T11:51:01;6.40;;;6.10;;
3050;SDS011;1535;51.098;6.414;2023-08-06T11:53:30;8.23;;;7.63;;
3050;SDS011;1535;51.098;6.414;2023-08-06T11:56:00;7.30;;;7.00;;
3050;SDS011;1535;51.098;6.414;2023-08-06T11:58:28;6.17;;;5.97;;
3050;SDS011;1535;51.098;6.414;2023-08-06T12:00:58;6.20;;;6.00;;
3050;SDS011;1535;51.098;6.414;2023-08-06T12:03:25;6.60;;;6.30;;
3050;SDS011;1535;51.098;6.414;2023-08-06T12:05:56;6.67;;;6.17;;
3050;SDS011;1535;51.098;6.414;2023-08-06T12:08:28;6.20;;;6.00;;
3050;SDS011;1535;51.098;6.414;2023-08-06T12:10:59;6.70;;;6.33;;
3050;SDS011;1535;51.098;6.414;2023-08-06T12:13:34;5.80;;;5.60;;
3050;SDS011;1535;51.098;6.414;2023-08-06T12:16:03;4.53;;;4.43;;
3050;SDS011;1535;51.098;6.414;2023-08-06T12:18:32;4.90;;;4.70;;
3050;SDS011;1535;51.098;6.414;2023-08-06T12:20:59;4.77;;;4.57;;
3050;SDS011;1535;51.098;6.414;2023-08-06T12:23:30;5.10;;;4.80;;
3050;SDS011;1535;51.098;6.414;2023-08-06T12:25:58;5.00;;;4.80;;
3050;SDS011;1535;51.098;6.414;2023-08-06T12:28:24;5.43;;;5.23;;
3050;SDS011;1535;51.098;6.414;2023-08-06T12:30:51;5.87;;;5.67;;
3050;SDS011;1535;51.098;6.414;2023-08-06T12:33:23;7.13;;;6.83;;
3050;SDS011;1535;51.098;6.414;2023-08-06T12:35:50;8.07;;;7.60;;
3050;SDS011;1535;51.098;6.414;2023-08-06T12:38:20;7.97;;;7.40;;
3050;SDS011;1535;51.098;6.414;2023-08-06T12:40:47;7.60;;;7.10;;
3050;SDS011;1535;51.098;6.414;2023-08-06T12:43:14;6.63;;;6.43;;
3050;SDS011;1535;51.098;6.414;2023-08-06T12:45:41;7.13;;;6.83;;
3050;SDS011;1535;51.098;6.414;2023-08-06T12:48:14;6.17;;;5.87;;
3050;SDS011;1535;51.098;6.414;2023-08-06T12:50:46;7.00;;;6.70;;
3050;SDS011;1535;51.098;6.414;2023-08-06T12:53:14;8.20;;;7.70;;
3050;SDS011;1535;51.098;6.414;2023-08-06T12:55:41;7.57;;;7.17;;
3050;SDS011;1535;51.098;6.414;2023-08-06T12:58:08;6.83;;;6.53;;
3050;SDS011;1535;51.098;6.414;2023-08-06T13:00:40;5.70;;;5.43;;
3050;SDS011;1535;51.098;6.414;2023-08-06T13:03:07;9.70;;;9.30;;
3050;SDS011;1535;51.098;6.414;2023-08-06T13:05:35;7.37;;;7.07;;
3050;SDS011;1535;51.098;6.414;2023-08-06T13:08:05;8.50;;;8.10;;
3050;SDS011;1535;51.098;6.414;2023-08-06T13:10:33;7.80;;;7.50;;
3050;SDS011;1535;51.098;6.414;2023-08-06T13:13:02;7.70;;;7.40;;
3050;SDS011;1535;51.098;6.414;2023-08-06T13:15:30;7.40;;;7.10;;
3050;SDS011;1535;51.098;6.414;2023-08-06T13:18:00;8.67;;;8.27;;
3050;SDS011;1535;51.098;6.414;2023-08-06T13:20:27;8.17;;;7.87;;
3050;SDS011;1535;51.098;6.414;2023-08-06T13:23:00;7.97;;;7.67;;
3050;SDS011;1535;51.098;6.414;2023-08-06T13:25:31;8.93;;;8.47;;
3050;SDS011;1535;51.098;6.414;2023-08-06T13:28:04;7.90;;;7.50;;
3050;SDS011;1535;51.098;6.414;2023-08-06T13:30:31;8.40;;;6.83;;
3050;SDS011;1535;51.098;6.414;2023-08-06T13:33:06;6.17;;;5.90;;
3050;SDS011;1535;51.098;6.414;2023-08-06T13:35:39;6.03;;;5.83;;
3050;SDS011;1535;51.098;6.414;2023-08-06T13:38:07;6.03;;;5.73;;
3050;SDS011;1535;51.098;6.414;2023-08-06T13:40:40;7.70;;;7.40;;
3050;SDS011;1535;51.098;6.414;2023-08-06T13:43:09;7.57;;;7.27;;
3050;SDS011;1535;51.098;6.414;2023-08-06T13:45:36;10.00;;;9.00;;
3050;SDS011;1535;51.098;6.414;2023-08-06T13:48:04;8.20;;;7.80;;
3050;SDS011;1535;51.098;6.414;2023-08-06T13:50:32;6.50;;;6.30;;
3050;SDS011;1535;51.098;6.414;2023-08-06T13:52:58;7.13;;;6.83;;
3050;SDS011;1535;51.098;6.414;2023-08-06T13:55:26;7.87;;;7.57;;
3050;SDS011;1535;51.098;6.414;2023-08-06T13:57:55;7.30;;;7.10;;
3050;SDS011;1535;51.098;6.414;2023-08-06T14:00:22;6.40;;;6.20;;
3050;SDS011;1535;51.098;6.414;2023-08-06T14:02:49;6.53;;;6.33;;
3050;SDS011;1535;51.098;6.414;2023-08-06T14:05:16;7.03;;;6.63;;
3050;SDS011;1535;51.098;6.414;2023-08-06T14:07:43;6.87;;;6.57;;
3050;SDS011;1535;51.098;6.414;2023-08-06T14:10:10;6.43;;;6.00;;
3050;SDS011;1535;51.098;6.414;2023-08-06T14:12:37;4.83;;;4.63;;
3050;SDS011;1535;51.098;6.414;2023-08-06T14:15:06;4.93;;;4.67;;
3050;SDS011;1535;51.098;6.414;2023-08-06T14:17:33;5.60;;;5.20;;
3050;SDS011;1535;51.098;6.414;2023-08-06T14:20:00;5.27;;;5.07;;
3050;SDS011;1535;51.098;6.414;2023-08-06T14:22:29;5.70;;;5.50;;
3050;SDS011;1535;51.098;6.414;2023-08-06T14:24:56;6.30;;;6.10;;
3050;SDS011;1535;51.098;6.414;2023-08-06T14:27:24;6.80;;;6.60;;
3050;SDS011;1535;51.098;6.414;2023-08-06T14:29:54;9.63;;;9.13;;
3050;SDS011;1535;51.098;6.414;2023-08-06T14:32:22;9.30;;;9.00;;
3050;SDS011;1535;51.098;6.414;2023-08-06T14:34:51;9.23;;;8.43;;
3050;SDS011;1535;51.098;6.414;2023-08-06T14:37:21;8.00;;;7.70;;
3050;SDS011;1535;51.098;6.414;2023-08-06T14:39:48;10.77;;;10.10;;
3050;SDS011;1535;51.098;6.414;2023-08-06T14:42:15;9.50;;;9.20;;
3050;SDS011;1535;51.098;6.414;2023-08-06T14:44:42;10.77;;;10.37;;
3050;SDS011;1535;51.098;6.414;2023-08-06T14:47:09;10.37;;;9.97;;
3050;SDS011;1535;51.098;6.414;2023-08-06T14:49:38;10.50;;;10.10;;
3050;SDS011;1535;51.098;6.414;2023-08-06T14:52:05;10.93;;;10.43;;
3050;SDS011;1535;51.098;6.414;2023-08-06T14:54:33;10.47;;;9.97;;
3050;SDS011;1535;51.098;6.414;2023-08-06T14:59:49;9.67;;;9.37;;
3050;SDS011;1535;51.098;6.414;2023-08-06T15:02:16;9.27;;;8.97;;
3050;SDS011;1535;51.098;6.414;2023-08-06T15:04:45;9.60;;;9.20;;
3050;SDS011;1535;51.098;6.414;2023-08-06T15:07:16;9.43;;;8.93;;
3050;SDS011;1535;51.098;6.414;2023-08-06T15:09:43;9.50;;;9.20;;
3050;SDS011;1535;51.098;6.414;2023-08-06T15:12:13;10.97;;;10.27;;
3050;SDS011;1535;51.098;6.414;2023-08-06T15:14:44;11.33;;;10.60;;
3050;SDS011;1535;51.098;6.414;2023-08-06T15:17:11;10.03;;;9.57;;